Time;durP1;ratioP1;P1;durP2;ratioP2;P2;SDS_P1;SDS_P2;PMS_P1;PMS_P2;Temp;Humidity;BMP_temperature;BMP_pressure;BME280_temperature;BME280_humidity;BME280_pressure;Samples;Min_cycle;Max_cycle;Signal;HPM_P1;HPM_P2
2022/10/18 00:01:36;;;;;;;37.63;30.67;;;16.10;89.20;;;;;;5032810;28;20588;-68
2022/10/18 00:04:02;;;;;;;42.00;29.20;;;16.00;89.30;;;;;;5032628;28;20044;-68
2022/10/18 00:06:28;;;;;;;38.35;30.63;;;16.00;89.40;;;;;;5032453;28;20034;-69
2022/10/18 00:08:53;;;;;;;41.53;29.52;;;16.00;89.60;;;;;;5033030;28;20052;-68
2022/10/18 00:11:19;;;;;;;43.35;31.05;;;16.00;89.60;;;;;;5032891;28;20049;-68
2022/10/18 00:13:44;;;;;;;44.58;31.23;;;16.00;89.30;;;;;;5032640;28;20122;-69
2022/10/18 00:16:13;;;;;;;39.85;30.92;;;15.90;89.60;;;;;;5032551;28;20041;-68
2022/10/18 00:18:39;;;;;;;42.63;29.15;;;15.90;89.60;;;;;;5032589;28;20377;-68
2022/10/18 00:21:16;;;;;;;40.20;29.75;;;15.90;89.40;;;;;;5032784;28;20406;-69
2022/10/18 00:23:43;;;;;;;34.60;27.48;;;15.90;89.40;;;;;;5032924;28;20075;-68
2022/10/18 00:26:23;;;;;;;34.30;28.67;;;15.80;89.30;;;;;;5032600;28;20160;-68
2022/10/18 00:28:51;;;;;;;38.45;29.35;;;15.90;89.40;;;;;;5032254;28;20034;-68
2022/10/18 00:31:26;;;;;;;39.30;29.35;;;15.90;89.30;;;;;;5032250;28;20083;-68
2022/10/18 00:33:55;;;;;;;40.25;30.52;;;15.80;89.50;;;;;;5035136;28;20026;-68
2022/10/18 00:36:21;;;;;;;51.78;31.30;;;15.80;89.60;;;;;;5036159;28;20029;-68
2022/10/18 00:38:47;;;;;;;42.15;31.27;;;15.80;89.50;;;;;;5035913;28;20041;-68
2022/10/18 00:41:16;;;;;;;42.03;30.45;;;15.80;89.60;;;;;;5035711;28;20049;-67
2022/10/18 00:44:01;;;;;;;39.97;30.00;;;15.80;89.60;;;;;;5035877;28;20040;-68
2022/10/18 00:46:35;;;;;;;42.92;29.45;;;15.80;89.50;;;;;;5036094;28;20155;-68
2022/10/18 00:49:08;;;;;;;41.92;30.98;;;15.80;89.70;;;;;;5035881;28;20042;-68
2022/10/18 00:51:55;;;;;;;42.83;30.33;;;15.70;89.80;;;;;;5035457;28;20053;-68
2022/10/18 00:54:22;;;;;;;41.83;31.67;;;15.80;89.80;;;;;;5036247;28;20049;-68
2022/10/18 00:56:48;;;;;;;42.13;31.40;;;15.70;89.90;;;;;;5035578;28;20040;-69
2022/10/18 00:59:15;;;;;;;45.22;31.35;;;15.70;90.00;;;;;;5033009;28;20037;-69
2022/10/18 01:01:41;;;;;;;41.05;32.28;;;15.70;90.20;;;;;;5032804;28;20117;-69
2022/10/18 01:04:07;;;;;;;43.08;32.13;;;15.70;90.00;;;;;;5033209;28;20160;-68
2022/10/18 01:06:57;;;;;;;44.58;33.28;;;15.70;89.80;;;;;;5034952;28;20029;-68
2022/10/18 01:09:38;;;;;;;45.38;32.35;;;15.70;90.00;;;;;;5035491;28;20100;-69
2022/10/18 01:12:12;;;;;;;43.35;31.90;;;15.70;90.10;;;;;;5035170;28;20045;-68
2022/10/18 01:15:16;;;;;;;45.97;33.58;;;15.70;90.20;;;;;;5034870;28;20033;-68
2022/10/18 01:18:20;;;;;;;45.28;31.45;;;15.60;90.30;;;;;;4974431;28;20058;-68
2022/10/18 01:20:58;;;;;;;46.08;34.47;;;15.60;90.20;;;;;;5031066;28;20057;-68
2022/10/18 01:23:42;;;;;;;53.13;35.58;;;15.60;90.30;;;;;;5034950;28;20498;-69
2022/10/18 01:26:16;;;;;;;46.78;35.28;;;15.60;90.30;;;;;;5035067;28;20112;-68
2022/10/18 01:29:03;;;;;;;46.95;34.72;;;15.60;90.40;;;;;;5034812;28;20073;-69
2022/10/18 01:31:45;;;;;;;42.13;32.58;;;15.60;90.30;;;;;;5034826;28;20402;-68
2022/10/18 01:34:15;;;;;;;47.30;34.42;;;15.60;90.40;;;;;;5035082;28;20026;-69
2022/10/18 01:36:51;;;;;;;48.38;36.22;;;15.60;90.50;;;;;;5034676;28;20029;-68
2022/10/18 01:39:38;;;;;;;49.97;35.55;;;15.50;90.70;;;;;;5034875;28;20061;-68
2022/10/18 01:42:08;;;;;;;45.35;34.20;;;15.60;90.70;;;;;;5034360;28;20037;-68
2022/10/18 01:44:36;;;;;;;43.33;33.75;;;15.60;90.60;;;;;;5034059;28;20115;-68
2022/10/18 01:47:05;;;;;;;46.03;33.55;;;15.60;90.50;;;;;;5034767;28;20482;-68
2022/10/18 01:49:32;;;;;;;44.92;35.85;;;15.60;90.60;;;;;;5034605;28;20050;-68
2022/10/18 01:51:58;;;;;;;49.75;35.78;;;15.50;90.60;;;;;;5034681;28;20440;-68
2022/10/18 01:54:29;;;;;;;46.67;35.15;;;15.50;90.60;;;;;;5034566;28;20112;-68
2022/10/18 01:57:10;;;;;;;50.00;35.10;;;15.50;90.70;;;;;;5034610;28;20048;-68
2022/10/18 02:00:00;;;;;;;45.33;34.20;;;15.50;90.60;;;;;;5034432;28;20128;-68
2022/10/18 02:02:38;;;;;;;49.63;35.42;;;15.50;90.60;;;;;;5034479;28;20425;-68
2022/10/18 02:05:22;;;;;;;42.80;33.53;;;15.50;90.60;;;;;;5034608;28;20046;-68
2022/10/18 02:08:07;;;;;;;49.13;35.00;;;15.40;90.50;;;;;;5034694;28;20033;-68
2022/10/18 02:10:45;;;;;;;43.88;33.20;;;15.40;90.50;;;;;;5034317;28;20449;-68
2022/10/18 02:13:14;;;;;;;40.63;31.55;;;15.40;90.50;;;;;;5043379;28;20033;-68
2022/10/18 02:15:45;;;;;;;41.83;32.10;;;15.40;90.40;;;;;;5054419;28;20029;-69
2022/10/18 02:18:17;;;;;;;42.85;32.80;;;15.40;90.40;;;;;;5054188;28;20108;-69
2022/10/18 02:20:45;;;;;;;42.20;32.17;;;15.30;90.40;;;;;;5053971;28;20037;-68
2022/10/18 02:23:14;;;;;;;44.65;32.33;;;15.30;90.40;;;;;;5053905;28;20029;-68
2022/10/18 02:25:40;;;;;;;43.70;32.35;;;15.30;90.30;;;;;;5053713;28;20549;-68
2022/10/18 02:28:05;;;;;;;45.70;33.65;;;15.30;90.30;;;;;;5053839;28;20060;-68
2022/10/18 02:30:50;;;;;;;44.28;32.08;;;15.30;90.30;;;;;;5053773;28;20116;-68
2022/10/18 02:33:44;;;;;;;39.17;31.33;;;15.30;90.30;;;;;;5053836;28;20040;-69
2022/10/18 02:36:17;;;;;;;48.10;33.28;;;15.30;90.20;;;;;;5053715;28;20033;-68
2022/10/18 02:38:45;;;;;;;45.30;32.88;;;15.30;90.20;;;;;;5053743;28;20033;-68
2022/10/18 02:41:11;;;;;;;43.70;31.85;;;15.30;90.30;;;;;;5053816;28;20175;-68
2022/10/18 02:43:36;;;;;;;43.67;30.80;;;15.20;90.40;;;;;;5053918;28;20108;-68
2022/10/18 02:46:02;;;;;;;41.90;30.52;;;15.30;90.30;;;;;;5053522;28;20477;-68
2022/10/18 02:48:28;;;;;;;41.80;32.17;;;15.20;90.30;;;;;;5053403;28;20025;-68
2022/10/18 02:50:54;;;;;;;44.05;31.25;;;15.20;90.30;;;;;;5053366;28;20049;-68
2022/10/18 02:53:19;;;;;;;39.25;30.45;;;15.20;90.30;;;;;;5053441;28;20497;-68
2022/10/18 02:55:45;;;;;;;37.10;29.02;;;15.10;90.20;;;;;;5053163;28;20135;-68
2022/10/18 02:58:11;;;;;;;35.40;28.77;;;15.20;90.10;;;;;;5053534;28;20099;-68
2022/10/18 03:00:36;;;;;;;37.15;28.77;;;15.10;90.00;;;;;;5053131;28;20127;-68
2022/10/18 03:03:02;;;;;;;36.25;26.33;;;15.10;89.80;;;;;;5053186;28;20036;-69
2022/10/18 03:05:28;;;;;;;33.22;26.58;;;15.00;89.60;;;;;;5053149;28;20061;-68
2022/10/18 03:07:56;;;;;;;34.55;26.48;;;15.00;89.40;;;;;;5053433;28;20461;-68
2022/10/18 03:10:22;;;;;;;31.90;26.15;;;15.00;89.00;;;;;;5053140;28;20032;-68
2022/10/18 03:12:47;;;;;;;30.52;25.05;;;15.00;89.10;;;;;;5052888;28;20068;-68
2022/10/18 03:15:13;;;;;;;34.95;24.00;;;14.90;88.90;;;;;;5053181;28;20099;-68
2022/10/18 03:17:39;;;;;;;30.95;24.83;;;14.90;89.00;;;;;;5052997;28;20069;-68
2022/10/18 03:20:05;;;;;;;34.88;25.23;;;14.80;89.00;;;;;;5053110;28;20040;-68
2022/10/18 03:22:30;;;;;;;29.27;24.23;;;14.80;89.20;;;;;;5053051;28;20123;-68
2022/10/18 03:24:56;;;;;;;30.05;24.50;;;14.80;89.10;;;;;;5052923;28;20033;-68
2022/10/18 03:27:22;;;;;;;28.40;23.13;;;14.80;89.20;;;;;;5053097;28;20033;-68
2022/10/18 03:29:47;;;;;;;30.42;24.00;;;14.70;89.30;;;;;;5052948;28;20037;-68
2022/10/18 03:32:13;;;;;;;27.98;23.58;;;14.70;89.30;;;;;;5052962;28;20045;-69
2022/10/18 03:34:39;;;;;;;41.35;26.92;;;14.70;89.20;;;;;;5053118;28;20035;-68
2022/10/18 03:37:04;;;;;;;32.95;23.58;;;14.70;89.50;;;;;;5052786;28;20025;-68
2022/10/18 03:39:30;;;;;;;29.63;23.00;;;14.70;89.50;;;;;;5052842;28;20056;-68
2022/10/18 03:41:56;;;;;;;31.95;22.83;;;14.60;89.50;;;;;;5052637;28;20091;-68
2022/10/18 03:44:21;;;;;;;31.38;23.25;;;14.60;89.40;;;;;;5052848;28;20033;-68
2022/10/18 03:46:47;;;;;;;31.73;25.08;;;14.60;89.50;;;;;;5052916;28;20029;-68
2022/10/18 03:49:13;;;;;;;33.75;23.30;;;14.60;89.70;;;;;;5052730;28;20048;-68
2022/10/18 03:51:38;;;;;;;31.73;21.33;;;14.60;90.00;;;;;;5052466;28;20052;-68
2022/10/18 03:54:04;;;;;;;27.27;23.63;;;14.60;89.80;;;;;;5053063;28;20082;-68
2022/10/18 03:56:30;;;;;;;29.98;22.05;;;14.60;89.60;;;;;;5052757;28;20059;-68
2022/10/18 03:58:56;;;;;;;26.40;21.60;;;14.50;89.20;;;;;;5052782;28;20111;-68
2022/10/18 04:01:21;;;;;;;34.08;22.13;;;14.50;89.40;;;;;;5052568;28;20128;-68
2022/10/18 04:03:47;;;;;;;25.20;21.95;;;14.40;89.70;;;;;;5052650;28;20108;-68
2022/10/18 04:06:13;;;;;;;27.17;21.73;;;14.40;90.00;;;;;;5052662;28;20116;-68
2022/10/18 04:08:38;;;;;;;29.23;21.63;;;14.40;90.00;;;;;;5055087;28;20029;-68
2022/10/18 04:11:07;;;;;;;27.63;20.20;;;14.40;90.00;;;;;;5056796;28;20049;-68
2022/10/18 04:13:34;;;;;;;27.83;20.20;;;14.40;89.70;;;;;;5056399;28;20379;-68
2022/10/18 04:15:59;;;;;;;22.25;19.85;;;14.40;89.20;;;;;;5056501;28;20037;-68
2022/10/18 04:18:25;;;;;;;22.23;19.48;;;14.40;89.00;;;;;;5056317;28;20037;-68
2022/10/18 04:20:51;;;;;;;21.67;18.33;;;14.40;88.80;;;;;;5056685;28;20043;-68
2022/10/18 04:23:16;;;;;;;21.98;17.80;;;14.40;88.80;;;;;;5056301;28;20065;-68
2022/10/18 04:25:42;;;;;;;22.92;18.48;;;14.30;88.60;;;;;;5056148;28;20064;-68
2022/10/18 04:28:08;;;;;;;27.70;17.77;;;14.40;88.70;;;;;;5056229;28;20039;-68
2022/10/18 04:30:34;;;;;;;29.77;17.98;;;14.30;88.20;;;;;;5056118;28;20095;-69
2022/10/18 04:32:59;;;;;;;24.23;19.23;;;14.30;88.30;;;;;;5055984;28;20116;-69
2022/10/18 04:35:27;;;;;;;21.25;18.92;;;14.30;88.60;;;;;;5056088;28;20062;-68
2022/10/18 04:37:53;;;;;;;25.35;20.02;;;14.20;88.70;;;;;;5055889;28;20048;-68
2022/10/18 04:40:19;;;;;;;23.38;19.15;;;14.20;88.70;;;;;;5051795;28;20030;-68
2022/10/18 04:42:46;;;;;;;23.45;19.73;;;14.20;88.70;;;;;;5035811;28;20402;-68
2022/10/18 04:45:11;;;;;;;24.30;19.45;;;14.20;88.70;;;;;;5035927;28;20063;-68
2022/10/18 04:47:37;;;;;;;27.20;19.45;;;14.20;88.70;;;;;;5035901;28;20065;-68
2022/10/18 04:50:04;;;;;;;25.17;19.67;;;14.20;88.80;;;;;;5036176;28;20030;-68
2022/10/18 04:52:30;;;;;;;27.60;19.92;;;14.10;88.90;;;;;;5035813;28;20128;-68
2022/10/18 04:54:56;;;;;;;23.35;19.13;;;14.10;88.80;;;;;;5035815;28;20500;-68
2022/10/18 04:57:21;;;;;;;23.65;19.70;;;14.10;88.90;;;;;;5035860;28;20048;-68
2022/10/18 04:59:47;;;;;;;28.02;21.70;;;14.10;89.00;;;;;;5041873;28;20128;-68
2022/10/18 05:02:13;;;;;;;41.28;21.45;;;14.10;89.00;;;;;;5055808;28;20040;-68
2022/10/18 05:04:38;;;;;;;34.90;21.13;;;14.10;89.10;;;;;;5055829;28;20151;-68
2022/10/18 05:07:05;;;;;;;40.53;22.95;;;14.10;89.10;;;;;;5055376;28;20032;-68
2022/10/18 05:09:31;;;;;;;42.40;23.55;;;14.00;89.30;;;;;;5055464;28;20410;-68
2022/10/18 05:11:57;;;;;;;38.40;23.92;;;14.10;89.80;;;;;;5055109;28;20044;-69
2022/10/18 05:14:23;;;;;;;47.38;23.13;;;14.00;89.80;;;;;;5055297;28;20100;-68
2022/10/18 05:16:48;;;;;;;29.90;22.48;;;14.00;89.60;;;;;;5055423;28;20512;-68
2022/10/18 05:19:14;;;;;;;26.73;22.63;;;14.00;89.60;;;;;;5053960;28;20037;-68
2022/10/18 05:21:40;;;;;;;29.92;23.27;;;14.00;90.00;;;;;;5055223;28;20041;-68
2022/10/18 05:24:06;;;;;;;28.08;23.25;;;14.00;90.20;;;;;;5055318;28;20029;-69
2022/10/18 05:26:31;;;;;;;34.63;24.58;;;14.00;90.20;;;;;;5055172;28;20124;-68
2022/10/18 05:28:57;;;;;;;35.33;25.70;;;14.00;90.20;;;;;;5055256;28;20037;-68
2022/10/18 05:31:23;;;;;;;32.03;24.92;;;14.00;90.40;;;;;;5054944;28;20370;-68
2022/10/18 05:33:48;;;;;;;37.92;26.05;;;14.00;90.50;;;;;;5054463;28;20041;-68
2022/10/18 05:36:14;;;;;;;36.10;26.55;;;14.00;90.50;;;;;;5055003;28;20033;-68
2022/10/18 05:38:41;;;;;;;37.92;26.92;;;14.00;90.50;;;;;;5054838;28;20071;-68
2022/10/18 05:41:07;;;;;;;44.33;28.23;;;14.00;90.50;;;;;;5054637;28;20636;-68
2022/10/18 05:43:33;;;;;;;37.40;26.27;;;14.00;90.60;;;;;;5054653;28;20504;-68
2022/10/18 05:45:59;;;;;;;46.40;27.90;;;14.00;90.60;;;;;;5055006;28;20037;-68
2022/10/18 05:48:25;;;;;;;39.10;28.08;;;14.00;90.50;;;;;;5054485;28;20492;-68
2022/10/18 05:50:51;;;;;;;42.13;28.75;;;14.00;90.50;;;;;;5054288;28;20132;-68
2022/10/18 05:53:16;;;;;;;45.08;28.48;;;14.10;90.60;;;;;;5054450;28;20081;-68
2022/10/18 05:55:42;;;;;;;38.75;29.38;;;14.10;90.70;;;;;;5054717;28;20389;-68
2022/10/18 05:58:08;;;;;;;40.85;29.63;;;14.10;90.80;;;;;;5054359;28;20025;-68
2022/10/18 06:00:33;;;;;;;43.83;29.98;;;14.10;90.80;;;;;;5054281;28;20398;-68
2022/10/18 06:02:59;;;;;;;41.72;28.70;;;14.20;90.90;;;;;;5052950;28;20045;-68
2022/10/18 06:05:25;;;;;;;44.67;28.02;;;14.20;90.90;;;;;;5053601;28;20044;-68
2022/10/18 06:07:50;;;;;;;38.00;27.35;;;14.10;90.90;;;;;;5054099;28;20537;-68
2022/10/18 06:10:16;;;;;;;38.58;27.23;;;14.10;91.00;;;;;;5053580;28;20037;-68
2022/10/18 06:12:42;;;;;;;38.72;27.90;;;14.20;91.00;;;;;;5053108;28;20044;-68
2022/10/18 06:15:08;;;;;;;43.22;29.42;;;14.20;91.00;;;;;;5053784;28;20119;-68
2022/10/18 06:17:33;;;;;;;40.20;29.65;;;14.20;91.10;;;;;;5053447;28;20037;-68
2022/10/18 06:19:59;;;;;;;44.35;30.95;;;14.20;91.10;;;;;;5053943;28;20037;-69
2022/10/18 06:22:25;;;;;;;42.80;29.45;;;14.30;91.20;;;;;;5053779;28;20033;-68
2022/10/18 06:24:50;;;;;;;43.15;32.70;;;14.30;91.40;;;;;;5053567;28;20044;-69
2022/10/18 06:27:16;;;;;;;45.10;30.88;;;14.30;91.40;;;;;;5053805;28;20048;-69
2022/10/18 06:29:42;;;;;;;43.83;30.70;;;14.40;91.70;;;;;;5053405;28;20120;-68
2022/10/18 06:32:08;;;;;;;43.20;31.85;;;14.40;91.80;;;;;;5052970;28;20051;-68
2022/10/18 06:34:34;;;;;;;39.38;30.33;;;14.40;91.90;;;;;;5053381;28;20112;-68
2022/10/18 06:37:00;;;;;;;43.72;31.33;;;14.50;92.10;;;;;;5053465;28;20078;-68
2022/10/18 06:39:26;;;;;;;42.90;29.70;;;14.50;92.20;;;;;;5053068;28;20087;-68
2022/10/18 06:41:52;;;;;;;37.60;29.20;;;14.50;92.20;;;;;;5053132;28;20095;-68
2022/10/18 06:44:17;;;;;;;39.28;28.65;;;14.60;92.20;;;;;;5053016;28;20033;-67
2022/10/18 06:46:45;;;;;;;43.45;29.77;;;14.70;92.30;;;;;;5052724;28;20083;-66
2022/10/18 06:49:13;;;;;;;44.65;28.50;;;14.70;92.40;;;;;;5053161;28;20041;-66
2022/10/18 06:51:39;;;;;;;41.50;29.08;;;14.70;92.40;;;;;;5053345;28;20044;-67
2022/10/18 06:54:04;;;;;;;39.65;27.40;;;14.80;92.50;;;;;;5053032;28;20036;-68
2022/10/18 06:56:30;;;;;;;41.38;29.00;;;14.90;92.80;;;;;;5053043;28;20033;-67
2022/10/18 06:58:56;;;;;;;36.80;28.23;;;15.00;92.80;;;;;;5053049;28;20094;-66
2022/10/18 07:01:22;;;;;;;43.22;28.40;;;15.00;92.80;;;;;;5052615;28;20057;-67
2022/10/18 07:03:50;;;;;;;41.85;28.55;;;15.10;92.80;;;;;;5052933;28;20234;-67
2022/10/18 07:06:17;;;;;;;41.90;28.73;;;15.10;92.80;;;;;;5053237;28;20060;-67
2022/10/18 07:08:44;;;;;;;36.75;26.98;;;15.20;92.70;;;;;;5012351;28;20071;-67
2022/10/18 07:11:16;;;;;;;39.20;28.98;;;15.30;92.80;;;;;;5005586;28;20041;-67
2022/10/18 07:13:41;;;;;;;36.65;27.10;;;15.40;92.70;;;;;;4925703;28;20061;-66
2022/10/18 07:16:13;;;;;;;36.25;25.30;;;15.40;92.70;;;;;;4945901;28;20426;-66
2022/10/18 07:18:42;;;;;;;32.80;22.63;;;15.40;92.70;;;;;;5009780;28;20037;-66
2022/10/18 07:21:11;;;;;;;31.83;23.25;;;15.50;92.70;;;;;;5011566;28;20046;-67
2022/10/18 07:23:38;;;;;;;30.98;23.77;;;15.60;92.60;;;;;;5019931;28;20038;-65
2022/10/18 07:26:14;;;;;;;44.70;27.13;;;15.60;92.50;;;;;;5031852;28;20029;-67
2022/10/18 07:28:41;;;;;;;38.95;28.20;;;15.70;92.50;;;;;;5032585;28;20486;-67
2022/10/18 07:31:08;;;;;;;41.42;27.25;;;15.70;92.50;;;;;;5032267;28;20046;-68
2022/10/18 07:33:36;;;;;;;50.58;27.80;;;15.80;92.70;;;;;;5032483;28;20394;-67
2022/10/18 07:36:04;;;;;;;42.65;25.80;;;15.90;92.50;;;;;;5031539;28;20042;-66
2022/10/18 07:38:30;;;;;;;38.13;25.13;;;15.90;92.50;;;;;;5030838;28;20038;-67
2022/10/18 07:41:00;;;;;;;39.75;25.55;;;15.90;92.30;;;;;;5031961;28;20490;-67
2022/10/18 07:43:26;;;;;;;38.22;26.38;;;16.00;92.20;;;;;;5033349;28;20125;-67
2022/10/18 07:46:03;;;;;;;45.00;26.20;;;16.10;92.10;;;;;;5035812;28;20087;-67
2022/10/18 07:48:29;;;;;;;41.20;27.08;;;16.10;92.00;;;;;;5036517;28;20068;-67
2022/10/18 07:50:58;;;;;;;39.40;26.85;;;16.20;91.90;;;;;;5036562;28;20045;-67
2022/10/18 07:53:24;;;;;;;32.60;25.88;;;16.20;91.90;;;;;;5036032;28;20030;-67
2022/10/18 07:55:49;;;;;;;29.85;25.15;;;16.20;91.90;;;;;;5036662;28;20045;-67
2022/10/18 07:58:15;;;;;;;42.92;26.83;;;16.30;91.90;;;;;;5036551;28;20041;-67
2022/10/18 08:00:41;;;;;;;38.70;26.70;;;16.30;92.00;;;;;;5048404;28;20048;-66
2022/10/18 08:03:06;;;;;;;35.83;26.30;;;16.40;92.10;;;;;;5056057;28;20036;-67
2022/10/18 08:05:32;;;;;;;33.80;25.05;;;16.40;92.00;;;;;;5056070;28;20557;-67
2022/10/18 08:07:58;;;;;;;37.80;25.25;;;16.50;91.90;;;;;;5055981;28;20429;-67
2022/10/18 08:10:24;;;;;;;31.65;25.13;;;16.50;91.80;;;;;;5055336;28;20037;-67
2022/10/18 08:12:50;;;;;;;30.45;23.58;;;16.50;91.90;;;;;;5054722;28;20075;-67
2022/10/18 08:15:16;;;;;;;32.20;25.30;;;16.60;91.90;;;;;;5055662;28;20040;-67
2022/10/18 08:17:43;;;;;;;30.13;24.42;;;16.70;91.90;;;;;;5055620;28;20409;-67
2022/10/18 08:20:09;;;;;;;34.75;24.75;;;16.70;91.90;;;;;;5055680;28;20048;-66
2022/10/18 08:22:35;;;;;;;32.53;24.83;;;16.80;92.20;;;;;;5054780;28;20163;-67
2022/10/18 08:25:00;;;;;;;29.60;24.05;;;16.80;91.90;;;;;;5055472;28;20071;-67
2022/10/18 08:27:26;;;;;;;32.45;23.35;;;16.90;91.90;;;;;;5055852;28;20037;-67
2022/10/18 08:29:52;;;;;;;34.40;24.52;;;16.90;91.90;;;;;;5055049;28;20541;-67
2022/10/18 08:32:18;;;;;;;37.58;24.98;;;17.00;91.90;;;;;;5054967;28;20514;-67
2022/10/18 08:34:43;;;;;;;38.08;24.63;;;17.10;91.80;;;;;;5055335;28;20390;-67
2022/10/18 08:37:09;;;;;;;31.90;25.02;;;17.20;91.90;;;;;;5055598;28;20029;-67
2022/10/18 08:39:35;;;;;;;32.72;24.00;;;17.20;91.90;;;;;;5055743;28;20603;-67
2022/10/18 08:42:25;;;;;;;38.72;25.70;;;17.30;91.70;;;;;;5055884;28;20068;-67
2022/10/18 08:44:52;;;;;;;49.15;25.60;;;17.40;91.70;;;;;;5054750;28;20056;-67
2022/10/18 08:47:21;;;;;;;39.53;23.50;;;17.40;91.70;;;;;;5055596;28;20025;-67
2022/10/18 08:49:52;;;;;;;33.28;23.77;;;17.50;91.60;;;;;;5055434;28;20114;-67
2022/10/18 08:52:49;;;;;;;31.60;24.55;;;17.60;91.50;;;;;;5055464;28;20037;-67
2022/10/18 08:55:24;;;;;;;31.77;24.90;;;17.60;91.30;;;;;;5054992;28;20033;-67
2022/10/18 08:57:50;;;;;;;29.58;23.35;;;17.70;91.40;;;;;;5055123;28;20124;-67
2022/10/18 09:00:22;;;;;;;32.20;23.80;;;17.80;91.20;;;;;;5055314;28;20060;-67
2022/10/18 09:03:12;;;;;;;35.20;23.65;;;17.90;91.30;;;;;;5055611;28;20033;-67
2022/10/18 09:06:16;;;;;;;34.15;23.73;;;17.90;91.30;;;;;;5055308;28;20165;-67
2022/10/18 09:09:02;;;;;;;30.42;23.70;;;18.00;91.00;;;;;;5032338;28;20363;-67
2022/10/18 09:11:39;;;;;;;28.92;23.45;;;18.10;90.90;;;;;;5055132;28;20041;-67
2022/10/18 09:14:18;;;;;;;31.83;22.63;;;18.20;90.80;;;;;;5055040;28;20091;-67
2022/10/18 09:17:14;;;;;;;38.85;24.83;;;18.20;90.50;;;;;;5054276;28;20068;-67
2022/10/18 09:20:22;;;;;;;32.10;22.20;;;18.30;90.40;;;;;;5054739;28;20420;-67
2022/10/18 09:23:20;;;;;;;27.90;22.58;;;18.40;90.30;;;;;;5052148;28;20094;-67
2022/10/18 09:25:56;;;;;;;34.83;22.67;;;18.40;90.00;;;;;;5055091;28;20111;-67
2022/10/18 09:28:37;;;;;;;29.77;22.35;;;18.50;89.80;;;;;;5055040;28;20029;-67
2022/10/18 09:31:20;;;;;;;27.65;23.55;;;18.60;89.70;;;;;;5055017;28;20037;-67
2022/10/18 09:33:57;;;;;;;35.47;23.73;;;18.70;90.30;;;;;;5054652;28;20072;-66
2022/10/18 09:36:26;;;;;;;26.83;21.45;;;18.70;89.50;;;;;;5054458;28;20033;-66
2022/10/18 09:39:00;;;;;;;29.05;23.00;;;18.80;89.00;;;;;;5054649;28;20036;-66
2022/10/18 09:41:43;;;;;;;35.83;23.27;;;18.90;89.00;;;;;;5054536;28;20086;-67
2022/10/18 09:44:24;;;;;;;32.03;23.52;;;19.00;88.70;;;;;;5054141;28;20037;-68
2022/10/18 09:47:02;;;;;;;32.40;22.50;;;19.00;88.40;;;;;;5054089;28;20029;-67
2022/10/18 09:49:41;;;;;;;36.00;22.65;;;19.10;88.60;;;;;;5053921;28;20150;-67
2022/10/18 09:52:16;;;;;;;27.73;22.52;;;19.20;88.40;;;;;;5054259;28;20041;-66
2022/10/18 09:54:50;;;;;;;27.10;22.08;;;19.30;87.80;;;;;;5054473;28;20104;-66
2022/10/18 09:57:22;;;;;;;32.33;22.83;;;19.40;86.80;;;;;;5054407;28;20120;-66
2022/10/18 09:59:49;;;;;;;29.70;23.88;;;19.50;86.90;;;;;;5053807;28;20060;-67
2022/10/18 10:02:20;;;;;;;31.00;23.42;;;19.50;86.40;;;;;;5054259;28;20033;-65
2022/10/18 10:04:47;;;;;;;34.17;23.42;;;19.60;86.50;;;;;;5073218;28;20033;-66
2022/10/18 10:07:25;;;;;;;30.48;22.48;;;19.70;85.00;;;;;;5073855;28;20029;-65
2022/10/18 10:10:12;;;;;;;26.23;22.83;;;19.80;84.10;;;;;;5074017;28;20033;-66
2022/10/18 10:12:40;;;;;;;25.95;22.60;;;19.80;84.40;;;;;;5073447;28;20090;-65
2022/10/18 10:15:07;;;;;;;28.42;22.75;;;19.90;84.40;;;;;;5073978;28;20043;-65
2022/10/18 10:17:34;;;;;;;32.28;22.75;;;20.00;84.50;;;;;;5073903;28;20085;-66
2022/10/18 10:20:20;;;;;;;27.92;21.70;;;20.00;85.10;;;;;;5073729;28;20033;-68
2022/10/18 10:22:48;;;;;;;30.10;24.25;;;20.10;84.20;;;;;;5073474;28;20043;-65
2022/10/18 10:25:31;;;;;;;31.50;24.63;;;20.10;85.40;;;;;;5073583;28;20040;-65
2022/10/18 10:28:22;;;;;;;35.92;24.67;;;20.20;84.90;;;;;;5073711;28;20025;-65
2022/10/18 10:30:48;;;;;;;36.60;23.50;;;20.20;82.50;;;;;;5073149;28;20048;-65
2022/10/18 10:33:35;;;;;;;30.45;23.45;;;20.30;82.50;;;;;;5073602;28;20033;-66
2022/10/18 10:36:14;;;;;;;36.35;23.58;;;20.40;82.40;;;;;;5073837;28;20190;-65
2022/10/18 10:38:40;;;;;;;32.95;22.90;;;20.40;81.80;;;;;;5072989;28;20024;-65
2022/10/18 10:41:26;;;;;;;31.13;21.90;;;20.60;82.00;;;;;;5071726;28;20491;-65
2022/10/18 10:43:52;;;;;;;35.22;24.55;;;20.60;82.80;;;;;;5071760;28;20028;-65
2022/10/18 10:46:20;;;;;;;27.15;22.23;;;20.60;82.50;;;;;;5072775;28;20103;-65
2022/10/18 10:48:47;;;;;;;28.63;22.55;;;20.80;81.70;;;;;;5070749;28;20039;-66
2022/10/18 10:51:17;;;;;;;29.80;22.88;;;20.80;81.80;;;;;;5052632;28;20041;-65
2022/10/18 10:54:19;;;;;;;26.05;22.00;;;20.90;81.40;;;;;;5052889;28;20037;-65
2022/10/18 10:57:10;;;;;;;29.63;23.33;;;21.00;81.80;;;;;;5053075;28;20041;-67
2022/10/18 10:59:47;;;;;;;26.02;22.83;;;21.10;81.60;;;;;;5051221;28;20505;-67
2022/10/18 11:02:13;;;;;;;38.35;23.55;;;21.10;80.60;;;;;;5052963;28;20086;-67
2022/10/18 11:04:40;;;;;;;27.45;22.42;;;21.20;81.20;;;;;;5053276;28;20035;-67
2022/10/18 11:07:22;;;;;;;27.05;22.35;;;21.30;81.80;;;;;;5053251;28;20024;-67
2022/10/18 11:09:57;;;;;;;30.08;21.67;;;21.30;80.70;;;;;;5053165;28;20124;-67
2022/10/18 11:12:22;;;;;;;24.05;21.20;;;21.40;80.90;;;;;;5052096;28;20052;-67
2022/10/18 11:15:09;;;;;;;32.25;22.83;;;21.50;80.80;;;;;;5052454;28;20033;-67
2022/10/18 11:17:59;;;;;;;25.48;22.77;;;21.50;80.40;;;;;;5045610;28;20033;-67
2022/10/18 11:20:36;;;;;;;26.30;21.70;;;21.60;78.20;;;;;;5052654;28;20033;-66
2022/10/18 11:23:07;;;;;;;34.03;23.30;;;21.60;78.80;;;;;;5051345;28;20029;-67
2022/10/18 11:25:42;;;;;;;35.08;23.27;;;21.70;78.70;;;;;;5052073;28;20041;-67
2022/10/18 11:28:29;;;;;;;27.38;22.95;;;21.70;79.20;;;;;;5052239;28;20033;-67
2022/10/18 11:31:07;;;;;;;30.48;24.25;;;21.80;80.10;;;;;;5052255;28;20072;-67
2022/10/18 11:34:00;;;;;;;32.70;25.67;;;21.90;79.80;;;;;;5052495;28;20392;-67
2022/10/18 11:36:43;;;;;;;35.92;26.27;;;22.00;80.60;;;;;;5052137;28;20037;-66
2022/10/18 11:39:25;;;;;;;43.47;28.95;;;22.00;79.80;;;;;;5052057;28;20042;-67
2022/10/18 11:42:00;;;;;;;36.28;28.83;;;22.00;79.50;;;;;;5052281;28;20087;-66
2022/10/18 11:44:43;;;;;;;35.80;28.05;;;22.10;79.10;;;;;;5052539;28;20112;-67
2022/10/18 11:47:13;;;;;;;35.03;28.00;;;22.10;78.90;;;;;;5052286;28;20548;-67
2022/10/18 11:50:05;;;;;;;38.25;28.23;;;22.20;78.60;;;;;;5052353;28;20037;-66
2022/10/18 11:52:42;;;;;;;43.33;30.77;;;22.20;79.00;;;;;;5052178;28;20409;-66
2022/10/18 11:55:41;;;;;;;35.20;30.20;;;22.30;78.80;;;;;;5052539;28;20033;-66
2022/10/18 11:58:17;;;;;;;40.47;28.88;;;22.40;79.00;;;;;;5052331;28;20408;-67
2022/10/18 12:00:45;;;;;;;42.15;31.10;;;22.40;79.90;;;;;;5052164;28;20045;-67
2022/10/18 12:03:56;;;;;;;39.08;31.67;;;22.40;78.80;;;;;;5052199;28;20071;-67
2022/10/18 12:06:27;;;;;;;36.38;30.20;;;22.50;77.40;;;;;;5052640;28;20033;-67
2022/10/18 12:09:03;;;;;;;43.13;33.08;;;22.50;78.00;;;;;;5053084;28;20508;-67
2022/10/18 12:11:35;;;;;;;40.47;35.05;;;22.50;78.00;;;;;;5052601;28;20508;-67
2022/10/18 12:14:24;;;;;;;48.22;38.38;;;22.50;78.00;;;;;;5052682;28;20559;-67
2022/10/18 12:16:50;;;;;;;45.83;36.38;;;22.60;78.10;;;;;;5052605;28;20036;-67
2022/10/18 12:19:24;;;;;;;46.08;36.47;;;22.60;78.40;;;;;;5052620;28;20544;-67
2022/10/18 12:21:51;;;;;;;37.25;31.00;;;22.60;78.00;;;;;;5052751;28;20041;-67
2022/10/18 12:24:21;;;;;;;35.50;30.40;;;22.70;78.90;;;;;;5052432;28;20049;-67
2022/10/18 12:26:50;;;;;;;41.67;31.80;;;22.70;78.70;;;;;;5052591;28;20043;-67
2022/10/18 12:29:31;;;;;;;41.42;33.65;;;22.70;78.70;;;;;;5054382;28;20029;-66
2022/10/18 12:32:23;;;;;;;43.42;33.80;;;22.80;78.20;;;;;;5056052;28;20049;-67
2022/10/18 12:34:53;;;;;;;44.58;33.05;;;22.80;77.90;;;;;;5056237;28;20033;-67
2022/10/18 12:38:13;;;;;;;39.65;32.60;;;22.80;77.60;;;;;;5055935;28;20033;-67
2022/10/18 12:40:44;;;;;;;40.05;32.95;;;22.90;77.60;;;;;;5056094;28;20021;-67
2022/10/18 12:43:35;;;;;;;42.13;33.63;;;22.90;77.80;;;;;;5056019;28;20043;-66
2022/10/18 12:46:04;;;;;;;40.55;32.90;;;22.90;76.20;;;;;;5055966;28;20033;-67
2022/10/18 12:48:42;;;;;;;37.13;30.10;;;22.90;75.70;;;;;;5055868;28;20120;-67
2022/10/18 12:51:26;;;;;;;40.28;32.05;;;22.90;76.10;;;;;;5055851;28;20398;-66